createdAt,value
2023-04-04T00:00:44.672Z,46.90
2023-04-04T00:03:17.989Z,46.93
2023-04-04T00:05:48.364Z,46.96
2023-04-04T00:08:16.574Z,46.85
2023-04-04T00:10:44.771Z,47.02
2023-04-04T00:13:13.404Z,47.10
2023-04-04T00:15:41.628Z,46.93
2023-04-04T00:18:10.046Z,47.25
2023-04-04T00:20:38.685Z,46.97
2023-04-04T00:23:07.172Z,47.14
2023-04-04T00:25:35.536Z,47.02
2023-04-04T00:28:04.396Z,47.06
2023-04-04T00:30:34.694Z,47.22
2023-04-04T00:33:03.523Z,47.07
2023-04-04T00:35:32.499Z,47.04
2023-04-04T00:38:00.839Z,46.86
2023-04-04T00:40:29.131Z,46.76
2023-04-04T00:42:59.388Z,46.82
2023-04-04T00:45:27.711Z,46.74
2023-04-04T00:47:56.542Z,46.80
2023-04-04T00:50:26.031Z,46.86
2023-04-04T00:52:54.999Z,46.99
2023-04-04T00:55:23.335Z,46.84
2023-04-04T00:57:51.905Z,46.86
2023-04-04T01:00:20.909Z,46.91
2023-04-04T01:02:49.605Z,46.82
2023-04-04T01:05:18.550Z,46.81
2023-04-04T01:07:47.124Z,46.89
2023-04-04T01:10:15.756Z,46.90
2023-04-04T01:12:45.371Z,46.70
2023-04-04T01:15:13.789Z,46.51
2023-04-04T01:17:45.440Z,46.61
2023-04-04T01:20:23.560Z,46.56
2023-04-04T01:22:53.803Z,46.71
2023-04-04T01:25:32.369Z,46.71
2023-04-04T01:28:00.808Z,46.75
2023-04-04T01:30:33.288Z,46.71
2023-04-04T01:33:16.858Z,46.78
2023-04-04T01:36:20.587Z,47.10
2023-04-04T01:39:05.093Z,47.00
2023-04-04T01:41:34.573Z,46.90
2023-04-04T01:44:03.881Z,47.04
2023-04-04T01:46:32.159Z,47.23
2023-04-04T01:49:00.584Z,46.99
2023-04-04T01:51:30.490Z,46.84
2023-04-04T01:53:58.562Z,46.76
2023-04-04T01:56:27.206Z,46.87
2023-04-04T01:58:55.519Z,46.82
2023-04-04T02:01:25.467Z,46.77
2023-04-04T02:03:53.706Z,46.67
2023-04-04T02:06:21.840Z,46.72
2023-04-04T02:08:50.194Z,46.82
2023-04-04T02:11:18.624Z,46.64
2023-04-04T02:13:47.234Z,46.76
2023-04-04T02:16:15.939Z,46.96
2023-04-04T02:18:44.194Z,46.86
2023-04-04T02:21:12.511Z,46.92
2023-04-04T02:23:40.682Z,46.75
2023-04-04T02:26:08.899Z,46.71
2023-04-04T02:28:37.175Z,46.87
2023-04-04T02:31:06.392Z,46.80
2023-04-04T02:33:34.841Z,46.77
2023-04-04T02:36:03.120Z,46.84
2023-04-04T02:38:31.296Z,46.90
2023-04-04T02:40:59.704Z,46.66
2023-04-04T02:43:27.887Z,46.79
2023-04-04T02:45:56.018Z,46.81
2023-04-04T02:48:24.471Z,46.58
2023-04-04T02:50:52.601Z,46.76
2023-04-04T02:53:20.776Z,46.60
2023-04-04T02:55:48.882Z,46.33
2023-04-04T02:58:17.018Z,46.68
2023-04-04T03:00:45.154Z,46.30
2023-04-04T03:03:13.462Z,46.30
2023-04-04T03:05:41.865Z,46.15
2023-04-04T03:08:10.389Z,46.30
2023-04-04T03:10:38.824Z,46.29
2023-04-04T03:13:08.335Z,46.08
2023-04-04T03:15:36.552Z,45.85
2023-04-04T03:18:04.918Z,46.02
2023-04-04T03:20:33.153Z,45.90
2023-04-04T03:23:01.414Z,46.17
2023-04-04T03:25:29.786Z,46.12
2023-04-04T03:28:08.438Z,46.19
2023-04-04T03:30:36.854Z,46.15
2023-04-04T03:33:08.356Z,46.32
2023-04-04T03:35:41.049Z,46.41
2023-04-04T03:38:12.526Z,46.39
2023-04-04T03:40:41.077Z,46.59
2023-04-04T03:43:09.368Z,46.55
2023-04-04T03:45:37.544Z,46.42
2023-04-04T03:48:06.232Z,46.44
2023-04-04T03:50:36.255Z,46.33
2023-04-04T03:53:04.394Z,46.57
2023-04-04T03:55:34.298Z,46.61
2023-04-04T03:58:02.572Z,46.46
2023-04-04T04:00:31.071Z,46.64
2023-04-04T04:02:59.542Z,46.44
2023-04-04T04:05:27.646Z,46.59
2023-04-04T04:07:55.816Z,46.54
2023-04-04T04:10:24.372Z,46.67
2023-04-04T04:12:52.915Z,46.67
2023-04-04T04:15:21.024Z,46.80
2023-04-04T04:17:49.518Z,46.96
2023-04-04T04:20:17.621Z,46.88
2023-04-04T04:22:47.232Z,47.18
2023-04-04T04:25:16.444Z,46.96
2023-04-04T04:27:45.119Z,46.90
2023-04-04T04:30:14.092Z,46.69
2023-04-04T04:32:43.781Z,46.46
2023-04-04T04:35:12.083Z,46.78
2023-04-04T04:37:40.382Z,46.40
2023-04-04T04:40:09.209Z,46.70
2023-04-04T04:42:37.376Z,46.24
2023-04-04T04:45:06.518Z,46.33
2023-04-04T04:47:36.806Z,46.32
2023-04-04T04:50:05.889Z,46.46
2023-04-04T04:52:37.582Z,46.50
2023-04-04T04:55:06.392Z,46.31
2023-04-04T04:57:34.720Z,46.25
2023-04-04T05:00:04.339Z,46.11
2023-04-04T05:02:32.800Z,46.56
2023-04-04T05:05:01.090Z,46.41
2023-04-04T05:07:29.561Z,46.64
2023-04-04T05:09:57.793Z,46.57
2023-04-04T05:12:25.950Z,46.73
2023-04-04T05:14:54.545Z,46.66
2023-04-04T05:17:22.839Z,46.47
2023-04-04T05:19:51.251Z,46.59
2023-04-04T05:22:19.653Z,46.53
2023-04-04T05:24:47.770Z,46.56
2023-04-04T05:27:15.993Z,46.72
2023-04-04T05:29:44.319Z,46.74
2023-04-04T05:32:12.546Z,46.74
2023-04-04T05:34:40.850Z,46.67
2023-04-04T05:37:09.156Z,46.55
2023-04-04T05:39:37.520Z,46.61
2023-04-04T05:42:05.902Z,46.58
2023-04-04T05:44:34.115Z,46.87
2023-04-04T05:47:02.394Z,46.77
2023-04-04T05:49:31.737Z,46.57
2023-04-04T05:51:59.975Z,46.78
2023-04-04T05:54:28.226Z,46.63
2023-04-04T05:56:56.341Z,46.77
2023-04-04T05:59:24.824Z,46.49
2023-04-04T06:01:53.025Z,46.61
2023-04-04T06:04:21.242Z,46.69
2023-04-04T06:06:49.542Z,46.34
2023-04-04T06:09:17.616Z,46.55
2023-04-04T06:11:45.795Z,46.11
2023-04-04T06:14:15.443Z,45.29
2023-04-04T06:16:44.138Z,45.13
2023-04-04T06:19:13.112Z,44.84
2023-04-04T06:21:41.561Z,44.90
2023-04-04T06:24:09.715Z,44.69
2023-04-04T06:26:37.964Z,44.53
2023-04-04T06:29:06.192Z,44.40
2023-04-04T06:31:34.209Z,43.63
2023-04-04T06:34:03.050Z,42.38
2023-04-04T06:36:31.542Z,40.86
2023-04-04T06:38:59.701Z,39.54
2023-04-04T06:41:28.037Z,38.31
2023-04-04T06:43:56.580Z,37.70
2023-04-04T06:46:24.852Z,37.13
2023-04-04T06:48:53.543Z,36.36
2023-04-04T06:51:22.010Z,35.05
2023-04-04T06:53:50.362Z,33.48
2023-04-04T06:56:18.552Z,32.22
2023-04-04T06:58:46.779Z,30.79
2023-04-04T07:01:14.976Z,29.26
2023-04-04T07:03:43.173Z,27.99
2023-04-04T07:06:11.612Z,26.71
2023-04-04T07:08:39.856Z,25.43
2023-04-04T07:11:08.318Z,24.67
2023-04-04T07:13:37.579Z,24.04
2023-04-04T07:16:06.096Z,23.79
2023-04-04T07:18:34.497Z,23.18
2023-04-04T07:21:03.006Z,22.70
2023-04-04T07:23:33.285Z,22.06
2023-04-04T07:26:01.410Z,21.41
2023-04-04T07:28:29.685Z,20.44
2023-04-04T07:31:01.745Z,19.59
2023-04-04T07:33:30.149Z,18.81
2023-04-04T07:35:58.278Z,18.01
2023-04-04T07:38:26.580Z,17.28
2023-04-04T07:40:54.949Z,16.66
2023-04-04T07:43:23.163Z,16.41
2023-04-04T07:45:51.279Z,15.59
2023-04-04T07:48:21.720Z,15.59
2023-04-04T07:50:51.259Z,15.65
2023-04-04T07:53:20.014Z,15.29
2023-04-04T07:55:48.532Z,15.06
2023-04-04T07:58:16.663Z,14.65
2023-04-04T08:00:45.046Z,14.53
2023-04-04T08:03:13.294Z,14.25
2023-04-04T08:05:42.060Z,14.06
2023-04-04T08:08:10.496Z,14.02
2023-04-04T08:10:38.833Z,13.68
2023-04-04T08:13:07.156Z,13.66
2023-04-04T08:15:36.057Z,13.28
2023-04-04T08:18:04.332Z,13.29
2023-04-04T08:20:32.525Z,13.19
2023-04-04T08:23:00.917Z,13.48
2023-04-04T08:25:29.083Z,13.78
2023-04-04T08:27:57.359Z,14.11
2023-04-04T08:30:26.015Z,14.13
2023-04-04T08:32:54.269Z,14.22
2023-04-04T08:35:22.568Z,14.11
2023-04-04T08:37:50.725Z,13.50
2023-04-04T08:40:18.973Z,13.88
2023-04-04T08:42:48.552Z,14.32
2023-04-04T08:45:18.962Z,14.70
2023-04-04T08:47:49.321Z,14.72
2023-04-04T08:50:19.966Z,14.40
2023-04-04T08:52:49.196Z,14.96
2023-04-04T08:55:17.923Z,15.69
2023-04-04T08:57:46.367Z,16.50
2023-04-04T09:00:15.024Z,17.71
2023-04-04T09:03:08.256Z,18.60
2023-04-04T09:05:37.709Z,19.15
2023-04-04T09:08:06.015Z,19.63
2023-04-04T09:10:34.430Z,20.04
2023-04-04T09:13:14.446Z,20.48
2023-04-04T09:15:52.575Z,20.77
2023-04-04T09:18:20.768Z,20.31
2023-04-04T09:20:50.247Z,20.09
2023-04-04T09:23:20.404Z,19.69
2023-04-04T09:28:22.782Z,19.42
2023-04-04T09:30:52.338Z,19.90
2023-04-04T09:33:23.355Z,19.76
2023-04-04T09:36:25.424Z,19.35
2023-04-04T09:38:55.065Z,18.63
2023-04-04T09:41:26.207Z,19.58
2023-04-04T09:43:57.836Z,19.05
2023-04-04T09:46:26.120Z,18.40
2023-04-04T09:48:54.468Z,18.85
2023-04-04T09:51:23.057Z,18.52
2023-04-04T09:53:51.596Z,18.61
2023-04-04T09:56:20.126Z,18.61
2023-04-04T09:59:02.711Z,18.46
2023-04-04T10:01:33.776Z,18.43
2023-04-04T10:04:04.744Z,18.90
2023-04-04T10:06:32.977Z,18.86
2023-04-04T10:09:01.211Z,19.69
2023-04-04T10:11:31.535Z,18.82
2023-04-04T10:14:00.791Z,19.28
2023-04-04T10:16:32.519Z,19.83
2023-04-04T10:19:02.147Z,19.21
2023-04-04T10:21:30.326Z,19.13
2023-04-04T10:24:00.227Z,18.53
2023-04-04T10:26:28.413Z,18.33
2023-04-04T10:28:56.579Z,18.50
2023-04-04T10:31:26.315Z,17.83
2023-04-04T10:34:14.655Z,18.34
2023-04-04T10:36:53.658Z,18.34
2023-04-04T10:39:29.729Z,18.17
2023-04-04T10:41:59.411Z,18.18
2023-04-04T10:44:39.198Z,18.68
2023-04-04T10:47:25.070Z,17.45
2023-04-04T10:49:53.315Z,17.51
2023-04-04T10:52:24.977Z,18.75
2023-04-04T10:54:58.978Z,19.57
2023-04-04T10:57:27.821Z,19.64
2023-04-04T11:00:02.433Z,19.55
2023-04-04T11:02:53.505Z,19.95
2023-04-04T11:05:38.881Z,20.47
2023-04-04T11:08:10.474Z,21.24
2023-04-04T11:10:41.912Z,22.32
2023-04-04T11:13:34.296Z,23.35
2023-04-04T11:16:06.079Z,24.43
2023-04-04T11:18:40.847Z,25.14
2023-04-04T11:21:17.188Z,26.21
2023-04-04T11:23:52.481Z,27.48
2023-04-04T11:26:29.598Z,27.99
2023-04-04T11:29:01.151Z,28.43
2023-04-04T11:31:40.966Z,28.90
2023-04-04T11:34:10.626Z,29.49
2023-04-04T11:36:41.866Z,30.41
2023-04-04T11:39:15.764Z,31.35
2023-04-04T11:42:06.408Z,32.20
2023-04-04T11:45:01.710Z,33.07
2023-04-04T11:47:30.743Z,33.78
2023-04-04T11:50:09.036Z,34.14
2023-04-04T11:52:37.898Z,34.37
2023-04-04T11:55:17.433Z,34.90
2023-04-04T11:57:48.992Z,35.31
2023-04-04T12:00:35.618Z,35.39
2023-04-04T12:03:09.538Z,35.82
2023-04-04T12:05:44.014Z,35.90
2023-04-04T12:08:14.259Z,36.51
2023-04-04T12:10:42.723Z,36.81
2023-04-04T12:13:11.152Z,36.36
2023-04-04T12:15:39.678Z,35.71
2023-04-04T12:18:08.945Z,35.02
2023-04-04T12:20:40.502Z,34.82
2023-04-04T12:23:09.300Z,34.41
2023-04-04T12:25:38.155Z,34.86
2023-04-04T12:28:07.469Z,35.14
2023-04-04T12:30:36.008Z,34.70
2023-04-04T12:33:04.953Z,35.21
2023-04-04T12:35:33.589Z,35.37
2023-04-04T12:38:06.279Z,35.31
2023-04-04T12:40:39.281Z,35.39
2023-04-04T12:43:17.685Z,35.97
2023-04-04T12:45:45.896Z,36.37
2023-04-04T12:48:15.906Z,36.78
2023-04-04T12:50:55.419Z,36.99
2023-04-04T12:56:01.996Z,35.91
2023-04-04T12:58:31.187Z,35.36
2023-04-04T13:01:01.342Z,34.79
2023-04-04T13:03:30.247Z,35.04
2023-04-04T13:05:59.513Z,34.35
2023-04-04T13:08:28.035Z,33.52
2023-04-04T13:11:05.032Z,33.97
2023-04-04T13:13:41.483Z,33.75
2023-04-04T13:16:14.921Z,33.69
2023-04-04T13:18:44.176Z,33.24
2023-04-04T13:21:14.132Z,32.55
2023-04-04T13:23:42.616Z,32.13
2023-04-04T13:26:11.360Z,32.61
2023-04-04T13:28:39.933Z,33.53
2023-04-04T13:31:09.165Z,33.71
2023-04-04T13:33:45.607Z,34.23
2023-04-04T13:36:14.199Z,34.71
2023-04-04T13:38:42.462Z,35.05
2023-04-04T13:41:12.533Z,35.15
2023-04-04T13:43:41.135Z,35.41
2023-04-04T13:46:09.575Z,35.77
2023-04-04T13:48:37.644Z,36.14
2023-04-04T13:51:06.173Z,36.08
2023-04-04T13:53:34.735Z,35.82
2023-04-04T13:56:17.613Z,36.04
2023-04-04T13:58:46.683Z,35.75
2023-04-04T14:01:15.272Z,35.48
2023-04-04T14:03:43.755Z,35.14
2023-04-04T14:06:12.190Z,34.61
2023-04-04T14:08:40.441Z,35.28
2023-04-04T14:11:08.551Z,35.05
2023-04-04T14:13:37.186Z,35.22
2023-04-04T14:16:08.594Z,35.54
2023-04-04T14:18:37.044Z,35.46
2023-04-04T14:21:05.920Z,35.69
2023-04-04T14:23:34.120Z,35.74
2023-04-04T14:26:02.581Z,35.94
2023-04-04T14:28:30.679Z,36.54
2023-04-04T14:30:58.887Z,37.28
2023-04-04T14:33:27.476Z,37.80
2023-04-04T14:35:55.685Z,38.19
2023-04-04T14:38:23.794Z,38.24
2023-04-04T14:40:52.327Z,38.54
2023-04-04T14:43:20.593Z,38.22
2023-04-04T14:45:48.805Z,37.88
2023-04-04T14:48:17.678Z,37.96
2023-04-04T14:50:47.066Z,38.37
2023-04-04T14:53:15.279Z,38.38
2023-04-04T14:55:44.225Z,38.75
2023-04-04T14:58:12.403Z,38.93
2023-04-04T15:00:40.532Z,39.19
2023-04-04T15:03:09.229Z,39.92
2023-04-04T15:05:38.945Z,40.16
2023-04-04T15:08:07.732Z,40.31
2023-04-04T15:10:36.297Z,40.40
2023-04-04T15:13:04.850Z,40.30
2023-04-04T15:15:33.757Z,40.53
2023-04-04T15:18:04.961Z,40.79
2023-04-04T15:20:33.608Z,41.05
2023-04-04T15:23:01.786Z,41.00
2023-04-04T15:25:30.294Z,41.12
2023-04-04T15:27:58.654Z,41.40
2023-04-04T15:30:28.393Z,41.36
2023-04-04T15:32:57.082Z,41.44
2023-04-04T15:35:25.383Z,41.55
2023-04-04T15:37:53.498Z,41.74
2023-04-04T15:40:22.541Z,41.93
2023-04-04T15:42:50.934Z,41.86
2023-04-04T15:45:19.119Z,42.20
2023-04-04T15:47:47.430Z,42.68
2023-04-04T15:50:16.006Z,43.03
2023-04-04T15:52:45.245Z,43.26
2023-04-04T15:55:16.455Z,43.43
2023-04-04T15:57:45.138Z,43.50
2023-04-04T16:00:14.662Z,43.59
2023-04-04T16:02:43.709Z,43.72
2023-04-04T16:05:15.059Z,43.95
2023-04-04T16:07:43.373Z,44.12
2023-04-04T16:10:11.855Z,44.62
2023-04-04T16:12:40.146Z,44.96
2023-04-04T16:15:09.353Z,45.09
2023-04-04T16:17:37.476Z,44.47
2023-04-04T16:20:07.462Z,44.46
2023-04-04T16:22:38.683Z,44.54
2023-04-04T16:25:08.197Z,44.31
2023-04-04T16:27:36.415Z,43.76
2023-04-04T16:30:05.443Z,43.84
2023-04-04T16:32:33.841Z,44.33
2023-04-04T16:35:02.451Z,44.52
2023-04-04T16:37:31.082Z,44.67
2023-04-04T16:39:59.435Z,45.02
2023-04-04T16:42:27.954Z,45.25
2023-04-04T16:44:56.046Z,45.37
2023-04-04T16:47:26.056Z,45.51
2023-04-04T16:49:55.349Z,45.97
2023-04-04T16:52:24.490Z,46.37
2023-04-04T16:54:55.776Z,46.28
2023-04-04T16:57:24.829Z,46.49
2023-04-04T16:59:54.027Z,46.95
2023-04-04T17:02:22.719Z,47.29
2023-04-04T17:04:51.532Z,47.37
2023-04-04T17:07:20.658Z,47.54
2023-04-04T17:09:49.031Z,47.52
2023-04-04T17:12:17.647Z,47.42
2023-04-04T17:14:45.827Z,47.38
2023-04-04T17:17:14.064Z,47.42
2023-04-04T17:19:42.502Z,47.65
2023-04-04T17:22:10.766Z,47.94
2023-04-04T17:24:39.257Z,48.18
2023-04-04T17:27:08.074Z,48.40
2023-04-04T17:29:36.837Z,48.44
2023-04-04T17:32:05.490Z,48.57
2023-04-04T17:34:34.011Z,48.44
2023-04-04T17:37:02.266Z,48.52
2023-04-04T17:39:30.575Z,48.75
2023-04-04T17:41:59.304Z,49.03
2023-04-04T17:44:27.443Z,48.87
2023-04-04T17:46:55.718Z,48.88
2023-04-04T17:49:24.357Z,49.05
2023-04-04T17:51:52.793Z,49.22
2023-04-04T17:54:22.104Z,49.42
2023-04-04T17:56:50.995Z,49.41
2023-04-04T17:59:19.295Z,49.53
2023-04-04T18:01:48.198Z,49.74
2023-04-04T18:04:16.900Z,49.83
2023-04-04T18:06:45.364Z,50.15
2023-04-04T18:09:13.596Z,50.61
2023-04-04T18:11:42.294Z,50.87
2023-04-04T18:14:10.527Z,51.14
2023-04-04T18:16:41.261Z,51.22
2023-04-04T18:19:10.124Z,51.38
2023-04-04T18:21:38.921Z,51.60
2023-04-04T18:24:07.469Z,51.73
2023-04-04T18:26:35.662Z,52.02
2023-04-04T18:29:03.811Z,52.05
2023-04-04T18:31:32.066Z,52.32
2023-04-04T18:34:01.175Z,52.52
2023-04-04T18:36:29.462Z,52.27
2023-04-04T18:39:00.127Z,52.41
2023-04-04T18:41:28.443Z,52.45
2023-04-04T18:43:57.095Z,52.50
2023-04-04T18:46:25.218Z,52.54
2023-04-04T18:48:53.645Z,52.80
2023-04-04T18:51:23.575Z,52.92
2023-04-04T18:53:52.196Z,52.90
2023-04-04T18:56:20.521Z,53.33
2023-04-04T18:58:49.613Z,53.37
2023-04-04T19:01:18.200Z,53.49
2023-04-04T19:03:47.489Z,53.54
2023-04-04T19:06:15.784Z,53.65
2023-04-04T19:08:44.716Z,53.98
2023-04-04T19:11:13.720Z,54.05
2023-04-04T19:13:41.961Z,54.42
2023-04-04T19:16:10.198Z,54.36
2023-04-04T19:18:39.011Z,54.68
2023-04-04T19:21:08.858Z,54.83
2023-04-04T19:23:38.444Z,54.93
2023-04-04T19:26:08.445Z,54.92
2023-04-04T19:28:36.554Z,54.92
2023-04-04T19:31:09.459Z,54.90
2023-04-04T19:33:38.233Z,54.98
2023-04-04T19:36:11.288Z,55.14
2023-04-04T19:38:41.389Z,55.03
2023-04-04T19:41:33.778Z,54.94
2023-04-04T19:44:03.296Z,55.05
2023-04-04T19:46:33.751Z,55.12
2023-04-04T19:49:14.214Z,55.12
2023-04-04T19:51:57.813Z,55.03
2023-04-04T19:54:32.233Z,55.00
2023-04-04T19:57:03.634Z,54.96
2023-04-04T19:59:57.506Z,54.99
2023-04-04T20:02:34.979Z,55.02
2023-04-04T20:05:29.291Z,54.97
2023-04-04T20:07:57.989Z,55.08
2023-04-04T20:10:38.226Z,55.05
2023-04-04T20:13:07.472Z,55.04
2023-04-04T20:16:01.496Z,54.91
2023-04-04T20:18:33.191Z,54.80
2023-04-04T20:21:14.391Z,54.71
2023-04-04T20:23:53.308Z,54.69
2023-04-04T20:26:54.633Z,54.67
2023-04-04T20:29:27.337Z,54.75
2023-04-04T20:32:04.026Z,54.87
2023-04-04T20:34:43.079Z,54.82
2023-04-04T20:37:21.712Z,54.86
2023-04-04T20:40:01.507Z,54.70
2023-04-04T20:42:37.774Z,54.84
2023-04-04T20:45:09.109Z,54.79
2023-04-04T20:47:47.439Z,55.04
2023-04-04T20:50:42.852Z,55.05
2023-04-04T20:53:17.684Z,55.17
2023-04-04T20:55:45.837Z,54.99
2023-04-04T20:58:26.669Z,54.96
2023-04-04T21:00:58.027Z,54.63
2023-04-04T21:03:31.820Z,54.38
2023-04-04T21:06:08.829Z,54.47
2023-04-04T21:08:44.164Z,54.36
2023-04-04T21:11:13.920Z,54.46
2023-04-04T21:13:44.454Z,54.49
2023-04-04T21:16:14.550Z,54.56
2023-04-04T21:18:43.927Z,54.33
2023-04-04T21:21:15.126Z,54.13
2023-04-04T21:23:48.854Z,53.96
2023-04-04T21:26:30.760Z,53.96
2023-04-04T21:29:15.984Z,53.88
2023-04-04T21:31:44.430Z,53.75
2023-04-04T21:34:19.616Z,53.50
2023-04-04T21:36:50.592Z,53.56
2023-04-04T21:39:24.303Z,53.33
2023-04-04T21:41:59.107Z,53.34
2023-04-04T21:44:28.818Z,53.14
2023-04-04T21:46:58.060Z,53.16
2023-04-04T21:49:28.194Z,53.17
2023-04-04T21:51:56.351Z,52.91
2023-04-04T21:54:24.952Z,52.99
2023-04-04T21:56:53.640Z,52.88
2023-04-04T21:59:21.701Z,52.68
2023-04-04T22:01:50.912Z,52.73
2023-04-04T22:04:20.413Z,52.62
2023-04-04T22:06:49.044Z,52.78
2023-04-04T22:09:18.248Z,52.90
2023-04-04T22:11:46.984Z,52.87
2023-04-04T22:14:15.408Z,52.93
2023-04-04T22:16:43.998Z,52.80
2023-04-04T22:19:12.544Z,52.75
2023-04-04T22:21:40.749Z,52.69
2023-04-04T22:24:09.145Z,53.01
2023-04-04T22:26:38.058Z,52.92
2023-04-04T22:29:06.439Z,53.00
2023-04-04T22:31:36.097Z,53.04
2023-04-04T22:34:04.179Z,53.15
2023-04-04T22:36:32.437Z,53.22
2023-04-04T22:39:00.824Z,53.13
2023-04-04T22:41:29.915Z,53.22
2023-04-04T22:43:58.585Z,53.29
2023-04-04T22:46:27.820Z,53.10
2023-04-04T22:48:57.587Z,53.09
2023-04-04T22:51:26.215Z,53.21
2023-04-04T22:53:54.508Z,53.02
2023-04-04T22:56:22.626Z,52.98
2023-04-04T22:58:50.847Z,52.90
2023-04-04T23:01:19.470Z,52.70
2023-04-04T23:03:47.770Z,52.74
2023-04-04T23:06:16.072Z,52.56
2023-04-04T23:08:50.702Z,52.59
2023-04-04T23:11:18.732Z,52.35
2023-04-04T23:13:46.934Z,52.41
2023-04-04T23:16:15.372Z,52.44
2023-04-04T23:18:44.234Z,52.37
2023-04-04T23:21:12.264Z,52.28
2023-04-04T23:23:40.573Z,52.36
2023-04-04T23:26:09.366Z,52.45
2023-04-04T23:28:38.040Z,52.49
2023-04-04T23:31:06.399Z,52.33
2023-04-04T23:33:35.637Z,52.50
2023-04-04T23:36:05.607Z,52.52
2023-04-04T23:38:34.146Z,52.40
2023-04-04T23:41:02.788Z,52.45
2023-04-04T23:43:32.174Z,52.37
2023-04-04T23:46:02.275Z,52.61
2023-04-04T23:48:30.336Z,52.68
2023-04-04T23:50:59.707Z,52.71
2023-04-04T23:53:29.399Z,52.77
2023-04-04T23:55:57.467Z,52.56
2023-04-04T23:58:26.552Z,52.71
